Time;durP1;ratioP1;P1;durP2;ratioP2;P2;SDS_P1;SDS_P2;PMS_P1;PMS_P2;Temp;Humidity;BMP_temperature;BMP_pressure;BME280_temperature;BME280_humidity;BME280_pressure;Samples;Min_cycle;Max_cycle;Signal;HPM_P1;HPM_P2
2021/08/01 00:01:47;;;;;;;2.53;2.33;;;23.00;99.90;;;;;;6249461;28;20243;-60
2021/08/01 00:04:50;;;;;;;2.80;2.10;;;23.00;99.90;;;;;;6249200;28;20231;-60
2021/08/01 00:07:53;;;;;;;3.00;2.50;;;23.00;99.90;;;;;;6249332;28;20235;-60
2021/08/01 00:10:58;;;;;;;2.20;2.00;;;23.00;99.90;;;;;;6249088;28;20235;-61
2021/08/01 00:14:02;;;;;;;2.20;1.80;;;22.80;99.90;;;;;;6249427;28;20752;-60
2021/08/01 00:17:05;;;;;;;5.00;2.87;;;22.90;99.90;;;;;;6249156;28;20566;-61
2021/08/01 00:20:09;;;;;;;2.43;2.20;;;22.80;99.90;;;;;;6249078;28;20232;-61
2021/08/01 00:23:13;;;;;;;2.50;2.13;;;22.90;99.90;;;;;;6249153;28;20231;-61
2021/08/01 00:26:17;;;;;;;2.53;2.33;;;22.80;99.90;;;;;;6249307;28;20223;-61
2021/08/01 00:29:20;;;;;;;2.40;2.20;;;22.80;99.90;;;;;;6248713;28;20239;-60
2021/08/01 00:32:24;;;;;;;4.17;2.30;;;22.80;99.90;;;;;;6249086;28;20236;-60
2021/08/01 00:35:27;;;;;;;3.00;2.33;;;22.80;99.90;;;;;;6247756;28;20227;-61
2021/08/01 00:38:30;;;;;;;1.73;1.63;;;22.70;99.90;;;;;;6238330;28;20432;-61
2021/08/01 00:41:35;;;;;;;3.57;2.60;;;22.70;99.90;;;;;;6247842;28;20289;-61
2021/08/01 00:44:38;;;;;;;3.20;2.73;;;22.70;99.90;;;;;;6248109;28;20274;-60
2021/08/01 00:47:42;;;;;;;2.70;2.50;;;22.70;99.90;;;;;;6247696;28;20551;-61
2021/08/01 00:50:46;;;;;;;5.53;2.53;;;22.50;99.90;;;;;;6248740;28;20243;-61
2021/08/01 00:53:49;;;;;;;3.63;2.50;;;22.30;99.90;;;;;;6248987;28;20224;-61
2021/08/01 00:56:53;;;;;;;3.33;2.37;;;22.10;99.90;;;;;;6249255;28;20243;-61
2021/08/01 00:59:56;;;;;;;3.10;2.47;;;22.20;99.90;;;;;;6248588;28;20577;-60
2021/08/01 01:03:09;;;;;;;2.60;2.40;;;22.40;99.90;;;;;;6248872;28;20235;-61
2021/08/01 01:06:19;;;;;;;3.70;2.37;;;22.40;99.90;;;;;;6248774;28;20363;-61
2021/08/01 01:09:30;;;;;;;3.97;2.20;;;22.40;99.90;;;;;;6248324;28;20242;-60
2021/08/01 01:12:40;;;;;;;2.90;2.70;;;22.50;99.90;;;;;;6273415;28;20230;-60
2021/08/01 01:15:45;;;;;;;2.67;2.47;;;22.20;99.90;;;;;;6274488;28;20199;-61
2021/08/01 01:18:50;;;;;;;2.90;2.70;;;22.10;99.90;;;;;;6277911;28;20246;-60
2021/08/01 01:22:03;;;;;;;3.87;2.20;;;22.20;99.90;;;;;;6277660;28;20686;-60
2021/08/01 01:25:15;;;;;;;6.10;2.27;;;22.20;99.90;;;;;;6277723;28;20236;-60
2021/08/01 01:28:26;;;;;;;2.23;2.03;;;22.20;99.90;;;;;;6277483;28;20239;-60
2021/08/01 01:31:37;;;;;;;2.57;2.37;;;22.00;99.90;;;;;;6277563;28;20562;-61
2021/08/01 01:34:55;;;;;;;4.33;2.47;;;21.90;99.90;;;;;;6277372;28;20232;-60
2021/08/01 01:38:00;;;;;;;3.27;2.50;;;21.60;99.90;;;;;;6277505;28;20223;-59
2021/08/01 01:41:04;;;;;;;3.00;2.33;;;21.70;99.90;;;;;;6272707;28;20235;-60
2021/08/01 01:44:09;;;;;;;2.73;2.40;;;21.80;99.90;;;;;;6276967;28;20235;-60
2021/08/01 01:47:15;;;;;;;4.30;2.80;;;21.80;99.90;;;;;;6277337;28;20231;-60
2021/08/01 01:50:19;;;;;;;3.30;2.47;;;21.80;99.90;;;;;;6276655;28;20235;-60
2021/08/01 01:53:24;;;;;;;2.60;2.40;;;21.50;99.90;;;;;;6277091;28;20227;-60
2021/08/01 01:56:28;;;;;;;2.30;2.10;;;21.40;99.90;;;;;;6277010;28;20224;-60
2021/08/01 01:59:31;;;;;;;3.47;2.10;;;21.40;99.90;;;;;;6276669;28;20251;-61
2021/08/01 02:02:36;;;;;;;2.93;2.73;;;21.50;99.90;;;;;;6276694;28;20231;-61
2021/08/01 02:05:42;;;;;;;2.20;2.00;;;21.70;99.90;;;;;;6277339;28;20322;-61
2021/08/01 02:08:54;;;;;;;3.10;2.90;;;21.70;99.90;;;;;;6276575;28;20235;-60
2021/08/01 02:12:04;;;;;;;3.73;2.30;;;21.60;99.90;;;;;;6276583;28;20228;-60
2021/08/01 02:15:09;;;;;;;3.00;2.10;;;21.60;99.90;;;;;;6276393;28;20242;-63
2021/08/01 02:18:20;;;;;;;2.93;2.40;;;21.60;99.90;;;;;;6276074;28;20227;-61
2021/08/01 02:21:24;;;;;;;3.00;2.70;;;21.50;99.90;;;;;;6276360;28;20239;-61
2021/08/01 02:24:29;;;;;;;4.03;2.77;;;21.40;99.90;;;;;;6276196;28;20242;-61
2021/08/01 02:27:34;;;;;;;3.80;2.77;;;21.30;99.90;;;;;;6275868;28;20238;-62
2021/08/01 02:30:38;;;;;;;2.53;2.30;;;21.20;99.90;;;;;;6275682;28;20235;-62
2021/08/01 02:33:42;;;;;;;4.27;3.07;;;21.20;99.90;;;;;;6276398;28;20265;-62
2021/08/01 02:36:46;;;;;;;3.17;2.43;;;21.20;99.90;;;;;;6275276;28;20540;-62
2021/08/01 02:39:51;;;;;;;3.70;3.23;;;21.20;99.90;;;;;;6275127;28;20230;-61
2021/08/01 02:42:56;;;;;;;7.83;3.50;;;21.30;99.90;;;;;;6275304;28;20223;-62
2021/08/01 02:46:01;;;;;;;3.00;2.50;;;21.30;99.90;;;;;;6275979;28;20231;-61
2021/08/01 02:49:07;;;;;;;4.40;3.23;;;21.30;99.90;;;;;;6275717;28;20231;-61
2021/08/01 02:52:13;;;;;;;3.30;2.60;;;21.40;99.90;;;;;;6275798;28;20246;-61
2021/08/01 02:55:18;;;;;;;3.10;2.70;;;21.40;99.90;;;;;;6275433;28;20684;-62
2021/08/01 02:58:22;;;;;;;4.40;3.17;;;21.30;99.90;;;;;;6275521;28;20242;-61
2021/08/01 03:01:25;;;;;;;3.17;2.87;;;21.30;99.90;;;;;;6275751;28;20234;-61
2021/08/01 03:04:29;;;;;;;3.07;2.87;;;21.20;99.90;;;;;;6275466;28;20227;-61
2021/08/01 03:07:32;;;;;;;5.30;3.00;;;21.20;99.90;;;;;;6275352;28;20610;-62
2021/08/01 03:10:37;;;;;;;3.30;3.00;;;21.30;99.90;;;;;;6275154;28;20235;-62
2021/08/01 03:13:40;;;;;;;3.00;2.63;;;21.30;99.90;;;;;;6275532;28;20238;-61
2021/08/01 03:16:43;;;;;;;3.93;2.63;;;21.30;99.90;;;;;;6274848;28;20235;-61
2021/08/01 03:19:46;;;;;;;3.57;2.73;;;21.30;99.90;;;;;;6266540;28;20242;-61
2021/08/01 03:22:50;;;;;;;2.90;2.60;;;21.20;99.90;;;;;;6263146;28;20232;-61
2021/08/01 03:25:54;;;;;;;4.33;2.10;;;21.20;99.90;;;;;;6257542;28;20231;-61
2021/08/01 03:28:57;;;;;;;3.23;3.00;;;21.10;99.90;;;;;;6255431;28;20561;-59
2021/08/01 03:32:00;;;;;;;2.90;2.60;;;21.10;99.90;;;;;;6256162;28;20713;-60
2021/08/01 03:35:04;;;;;;;3.40;2.40;;;21.00;99.90;;;;;;6262966;28;20306;-61
2021/08/01 03:38:07;;;;;;;4.73;3.03;;;21.00;99.90;;;;;;6260671;28;20239;-60
2021/08/01 03:41:11;;;;;;;4.00;3.13;;;21.00;99.90;;;;;;6263322;28;20681;-61
2021/08/01 03:44:15;;;;;;;3.57;2.90;;;21.00;99.90;;;;;;6260000;28;20243;-60
2021/08/01 03:47:18;;;;;;;3.50;3.20;;;21.00;99.90;;;;;;6264587;28;20231;-60
2021/08/01 03:50:21;;;;;;;2.90;2.37;;;21.00;99.90;;;;;;6250302;28;20236;-59
2021/08/01 03:53:24;;;;;;;3.27;3.07;;;21.10;99.90;;;;;;6265032;28;20235;-60
2021/08/01 03:56:29;;;;;;;5.07;3.30;;;21.20;99.90;;;;;;6258616;28;20232;-60
2021/08/01 03:59:35;;;;;;;3.50;3.00;;;21.30;99.90;;;;;;6266090;28;20293;-60
2021/08/01 04:02:38;;;;;;;3.50;3.10;;;21.30;99.90;;;;;;6256840;28;20238;-60
2021/08/01 04:05:42;;;;;;;3.50;3.30;;;21.40;99.90;;;;;;6267603;28;20227;-60
2021/08/01 04:08:46;;;;;;;5.17;2.80;;;21.40;99.90;;;;;;6255342;28;20228;-61
2021/08/01 04:11:50;;;;;;;3.10;2.83;;;21.40;99.90;;;;;;6268242;28;20525;-61
2021/08/01 04:14:53;;;;;;;3.50;3.13;;;21.50;99.90;;;;;;6254120;28;20239;-60
2021/08/01 04:17:56;;;;;;;3.60;3.30;;;21.50;99.90;;;;;;6269330;28;20227;-60
2021/08/01 04:21:00;;;;;;;3.60;3.30;;;21.40;99.90;;;;;;6253457;28;20595;-60
2021/08/01 04:24:03;;;;;;;3.30;3.00;;;21.40;99.90;;;;;;6270036;28;20549;-60
2021/08/01 04:27:07;;;;;;;4.23;3.83;;;21.30;99.90;;;;;;6252569;28;20231;-60
2021/08/01 04:30:11;;;;;;;3.27;3.00;;;21.30;99.90;;;;;;6270712;28;20568;-60
2021/08/01 04:33:14;;;;;;;4.00;3.17;;;21.40;99.90;;;;;;6251263;28;20235;-60
2021/08/01 04:36:18;;;;;;;3.40;3.10;;;21.50;99.90;;;;;;6272167;28;20559;-60
2021/08/01 04:39:21;;;;;;;3.30;2.93;;;21.60;99.90;;;;;;6250109;28;20240;-60
2021/08/01 04:42:25;;;;;;;4.20;3.10;;;21.60;99.90;;;;;;6272755;28;20231;-60
2021/08/01 04:45:28;;;;;;;3.83;3.33;;;21.60;99.90;;;;;;6249484;28;20224;-60
2021/08/01 04:48:32;;;;;;;4.50;3.30;;;21.50;99.90;;;;;;6273271;28;20219;-60
2021/08/01 04:51:35;;;;;;;3.87;3.10;;;21.60;99.90;;;;;;6273129;28;20235;-60
2021/08/01 04:54:38;;;;;;;3.27;2.90;;;21.60;99.90;;;;;;6278520;28;20203;-60
2021/08/01 04:57:42;;;;;;;3.20;2.97;;;21.50;99.90;;;;;;6278065;28;20207;-59
2021/08/01 05:00:45;;;;;;;3.73;3.43;;;21.60;99.90;;;;;;6277986;28;20228;-58
2021/08/01 05:03:49;;;;;;;3.60;3.30;;;21.60;99.90;;;;;;6278217;28;20207;-59
2021/08/01 05:06:52;;;;;;;4.07;3.33;;;21.80;99.90;;;;;;6278216;28;20231;-59
2021/08/01 05:09:55;;;;;;;3.53;3.23;;;21.90;99.90;;;;;;6278031;28;20238;-59
2021/08/01 05:13:00;;;;;;;2.70;2.50;;;22.10;99.90;;;;;;6277895;28;20234;-60
2021/08/01 05:16:03;;;;;;;3.50;3.20;;;22.30;99.90;;;;;;6277725;28;20231;-60
2021/08/01 05:19:06;;;;;;;2.93;2.73;;;22.40;99.90;;;;;;6277945;28;20228;-59
2021/08/01 05:22:10;;;;;;;3.40;2.90;;;22.50;99.90;;;;;;6277857;28;20234;-59
2021/08/01 05:25:13;;;;;;;3.87;3.47;;;22.60;99.90;;;;;;6278060;28;20223;-59
2021/08/01 05:28:18;;;;;;;3.53;2.70;;;22.70;99.90;;;;;;6277237;28;20224;-60
2021/08/01 05:31:21;;;;;;;3.37;3.17;;;22.80;99.90;;;;;;6277246;28;20238;-59
2021/08/01 05:34:24;;;;;;;4.00;3.00;;;22.90;99.90;;;;;;6277029;28;20223;-59
2021/08/01 05:37:28;;;;;;;3.50;3.20;;;23.00;99.90;;;;;;6277684;28;20227;-59
2021/08/01 05:40:31;;;;;;;3.87;2.90;;;23.20;99.90;;;;;;6277086;28;20572;-59
2021/08/01 05:43:39;;;;;;;4.10;3.13;;;23.30;99.90;;;;;;6277291;28;20243;-59
2021/08/01 05:46:42;;;;;;;2.97;2.77;;;23.40;99.90;;;;;;6277328;28;20235;-59
2021/08/01 05:49:45;;;;;;;3.80;2.73;;;23.60;99.90;;;;;;6277028;28;20288;-59
2021/08/01 05:52:48;;;;;;;3.37;3.00;;;23.60;99.90;;;;;;6276955;28;20625;-59
2021/08/01 05:55:51;;;;;;;3.83;3.50;;;23.60;99.90;;;;;;6277028;28;20223;-59
2021/08/01 05:58:56;;;;;;;5.73;3.37;;;23.70;99.90;;;;;;6267889;28;20243;-59
2021/08/01 06:01:59;;;;;;;3.67;3.33;;;23.80;99.90;;;;;;6276047;28;20243;-59
2021/08/01 06:05:02;;;;;;;3.10;2.33;;;23.90;99.90;;;;;;6276639;28;20251;-60
2021/08/01 06:08:05;;;;;;;3.57;3.27;;;23.70;99.90;;;;;;6276564;28;20227;-60
2021/08/01 06:11:09;;;;;;;3.67;3.20;;;23.60;99.90;;;;;;6276609;28;20566;-60
2021/08/01 06:14:14;;;;;;;4.03;3.00;;;23.60;99.90;;;;;;6276363;28;20254;-60
2021/08/01 06:17:17;;;;;;;3.13;2.60;;;23.60;99.90;;;;;;6276754;28;20243;-60
2021/08/01 06:20:20;;;;;;;5.27;3.20;;;23.90;99.90;;;;;;6276013;28;20699;-60
2021/08/01 06:23:23;;;;;;;3.70;2.80;;;24.10;99.90;;;;;;6276449;28;20239;-60
2021/08/01 06:26:26;;;;;;;3.70;3.37;;;24.50;99.90;;;;;;6276213;28;20231;-60
2021/08/01 06:29:31;;;;;;;3.07;2.70;;;25.00;99.90;;;;;;6276144;28;20238;-59
2021/08/01 06:32:34;;;;;;;4.70;2.90;;;25.40;99.90;;;;;;6276159;28;20608;-59
2021/08/01 06:35:38;;;;;;;3.13;2.90;;;25.60;99.90;;;;;;6276094;28;20227;-60
2021/08/01 06:38:43;;;;;;;3.00;2.80;;;25.70;99.90;;;;;;6275835;28;20560;-60
2021/08/01 06:41:46;;;;;;;3.80;3.40;;;25.60;99.60;;;;;;6275723;28;20230;-60
2021/08/01 06:44:51;;;;;;;3.50;3.20;;;25.30;99.90;;;;;;6275684;28;20235;-60
2021/08/01 06:47:54;;;;;;;2.90;2.60;;;25.40;99.90;;;;;;6276115;28;20245;-60
2021/08/01 06:50:57;;;;;;;3.60;3.30;;;25.50;99.90;;;;;;6275580;28;20228;-60
2021/08/01 06:54:00;;;;;;;3.43;3.13;;;25.40;99.80;;;;;;6275504;28;20224;-60
2021/08/01 06:57:04;;;;;;;3.40;3.13;;;25.40;99.90;;;;;;6275509;28;20234;-63
2021/08/01 07:00:09;;;;;;;3.83;3.30;;;25.40;99.90;;;;;;6274992;28;20234;-59
2021/08/01 07:03:12;;;;;;;4.33;3.70;;;25.20;99.90;;;;;;6275557;28;20246;-60
2021/08/01 07:06:16;;;;;;;4.10;3.80;;;25.20;99.90;;;;;;6274780;28;20227;-60
2021/08/01 07:09:22;;;;;;;3.50;3.20;;;25.20;99.90;;;;;;6275103;28;20243;-62
2021/08/01 07:12:25;;;;;;;4.20;3.60;;;25.80;99.90;;;;;;6275096;28;20692;-61
2021/08/01 07:15:30;;;;;;;5.23;4.10;;;26.10;98.80;;;;;;6274981;28;20715;-61
2021/08/01 07:18:33;;;;;;;4.60;3.63;;;25.80;99.30;;;;;;6274724;28;20227;-61
2021/08/01 07:21:36;;;;;;;3.43;3.13;;;25.50;99.50;;;;;;6272822;28;20204;-61
2021/08/01 07:24:39;;;;;;;4.40;4.10;;;25.30;99.40;;;;;;6272938;28;20211;-61
2021/08/01 07:27:42;;;;;;;4.13;3.83;;;25.20;99.90;;;;;;6272788;28;20207;-61
2021/08/01 07:30:48;;;;;;;3.57;3.30;;;25.40;99.90;;;;;;6272490;28;20301;-60
2021/08/01 07:33:51;;;;;;;4.63;4.33;;;25.60;99.90;;;;;;6272634;28;20621;-60
2021/08/01 07:36:54;;;;;;;4.67;4.10;;;25.80;99.70;;;;;;6274502;28;20234;-61
2021/08/01 07:39:57;;;;;;;4.47;4.17;;;26.10;99.40;;;;;;6274173;28;20235;-62
2021/08/01 07:43:00;;;;;;;4.67;4.27;;;27.70;98.40;;;;;;6274633;28;20227;-61
2021/08/01 07:46:05;;;;;;;4.23;3.83;;;28.90;94.80;;;;;;6274288;28;20222;-61
2021/08/01 07:49:08;;;;;;;3.80;3.50;;;30.30;92.40;;;;;;6274303;28;20649;-62
2021/08/01 07:52:12;;;;;;;5.10;4.60;;;32.10;86.70;;;;;;6273846;28;20226;-61
2021/08/01 07:55:16;;;;;;;5.57;3.92;;;32.50;79.70;;;;;;6274675;28;20218;-61
2021/08/01 07:58:19;;;;;;;4.45;4.05;;;33.50;75.20;;;;;;6274256;28;20231;-61
2021/08/01 08:01:24;;;;;;;3.60;3.30;;;34.70;71.10;;;;;;6274377;28;20230;-62
2021/08/01 08:04:27;;;;;;;3.97;3.67;;;35.80;64.60;;;;;;6274720;28;20364;-61
2021/08/01 08:07:31;;;;;;;3.90;3.60;;;34.90;63.50;;;;;;6274099;28;20219;-61
2021/08/01 08:10:36;;;;;;;7.35;4.25;;;36.10;61.30;;;;;;6273970;28;20227;-61
2021/08/01 08:13:39;;;;;;;3.72;3.35;;;38.30;56.80;;;;;;6274182;28;20226;-62
2021/08/01 08:16:44;;;;;;;4.68;4.13;;;39.10;51.80;;;;;;6274663;28;20226;-61
2021/08/01 08:19:47;;;;;;;4.07;3.78;;;37.60;51.70;;;;;;6273819;28;20681;-61
2021/08/01 08:22:50;;;;;;;3.92;3.63;;;37.80;52.40;;;;;;6274141;28;20230;-61
2021/08/01 08:25:54;;;;;;;4.47;3.97;;;38.60;51.10;;;;;;6276680;28;20572;-61
2021/08/01 08:28:57;;;;;;;4.10;3.80;;;39.90;48.20;;;;;;6279100;28;20234;-61
2021/08/01 08:32:02;;;;;;;5.07;4.32;;;40.50;46.40;;;;;;6278840;28;20230;-62
2021/08/01 08:35:06;;;;;;;4.85;4.45;;;38.30;48.20;;;;;;6279154;28;20232;-61
2021/08/01 08:38:09;;;;;;;4.70;4.30;;;36.60;51.20;;;;;;6278690;28;20555;-60
2021/08/01 08:41:14;;;;;;;4.55;4.25;;;35.00;54.70;;;;;;6278698;28;20230;-61
2021/08/01 08:44:18;;;;;;;4.43;3.95;;;33.60;58.10;;;;;;6278503;28;20226;-61
2021/08/01 08:47:26;;;;;;;5.97;5.38;;;32.30;61.00;;;;;;6278306;28;20245;-61
2021/08/01 08:50:30;;;;;;;4.40;4.10;;;31.70;64.10;;;;;;6277579;28;20273;-62
2021/08/01 08:53:34;;;;;;;5.45;5.05;;;31.60;66.00;;;;;;6258243;28;20234;-60
2021/08/01 08:56:38;;;;;;;5.17;4.77;;;31.40;66.10;;;;;;6252975;28;20235;-61
2021/08/01 08:59:42;;;;;;;6.63;6.03;;;30.30;69.60;;;;;;6263136;28;20302;-61
2021/08/01 09:02:46;;;;;;;7.80;5.67;;;29.80;72.00;;;;;;6253977;28;20578;-60
2021/08/01 09:05:54;;;;;;;6.07;5.50;;;29.20;74.40;;;;;;6263685;28;20233;-60
2021/08/01 09:08:58;;;;;;;6.40;5.80;;;29.00;76.00;;;;;;6248487;28;20231;-60
2021/08/01 09:12:04;;;;;;;6.13;5.63;;;28.80;77.40;;;;;;6251122;28;20224;-60
2021/08/01 09:15:16;;;;;;;6.57;5.90;;;28.50;78.70;;;;;;6260239;28;20226;-61
2021/08/01 09:18:20;;;;;;;6.40;5.90;;;28.30;80.30;;;;;;6250386;28;20230;-60
2021/08/01 09:21:31;;;;;;;6.60;6.00;;;28.20;81.90;;;;;;6251453;28;20212;-59
2021/08/01 09:24:37;;;;;;;5.97;5.53;;;27.90;83.50;;;;;;6241304;28;20621;-66
2021/08/01 09:27:41;;;;;;;6.30;5.80;;;28.10;84.00;;;;;;6250859;28;20262;-65
2021/08/01 09:30:49;;;;;;;6.33;5.80;;;28.20;84.30;;;;;;6262138;28;20212;-65
2021/08/01 09:33:54;;;;;;;6.90;6.00;;;27.90;85.60;;;;;;6251829;28;20672;-65
2021/08/01 09:37:03;;;;;;;7.33;6.57;;;28.00;86.30;;;;;;6258976;28;20247;-66
2021/08/01 09:40:09;;;;;;;7.30;6.63;;;28.00;86.50;;;;;;6251960;28;20235;-66
2021/08/01 09:43:13;;;;;;;7.00;6.30;;;27.60;88.50;;;;;;6253903;28;20231;-64
2021/08/01 09:46:16;;;;;;;6.80;6.23;;;27.30;90.10;;;;;;6259663;28;20223;-66
2021/08/01 09:49:22;;;;;;;7.03;6.50;;;27.10;91.30;;;;;;6254336;28;20561;-66
2021/08/01 09:52:26;;;;;;;6.87;6.27;;;27.20;91.60;;;;;;6260785;28;20250;-64
2021/08/01 09:55:30;;;;;;;6.67;6.17;;;27.30;91.40;;;;;;6260069;28;20219;-64
2021/08/01 09:58:36;;;;;;;5.90;5.40;;;27.30;91.40;;;;;;6268493;28;20227;-63
2021/08/01 10:01:49;;;;;;;6.60;6.10;;;27.20;91.80;;;;;;6261440;28;20238;-66
2021/08/01 10:05:14;;;;;;;7.27;6.53;;;27.20;92.40;;;;;;6265898;28;20232;-65
2021/08/01 10:08:36;;;;;;;7.30;6.70;;;27.20;92.80;;;;;;6259496;28;20235;-66
2021/08/01 10:11:40;;;;;;;7.07;6.47;;;27.10;92.90;;;;;;6257114;28;20247;-66
2021/08/01 10:14:44;;;;;;;6.27;5.77;;;27.10;92.90;;;;;;6267374;28;20231;-66
2021/08/01 10:17:47;;;;;;;7.20;6.67;;;27.00;92.80;;;;;;6257638;28;20247;-68
2021/08/01 10:20:52;;;;;;;7.17;6.47;;;26.90;93.20;;;;;;6269948;28;20249;-65
2021/08/01 10:23:59;;;;;;;7.37;6.80;;;26.60;94.50;;;;;;6257330;28;20231;-66
2021/08/01 10:27:05;;;;;;;8.00;7.20;;;26.40;95.10;;;;;;6271925;28;20226;-67
2021/08/01 10:30:09;;;;;;;8.50;7.70;;;26.20;96.60;;;;;;6254741;28;20555;-66
2021/08/01 10:33:16;;;;;;;7.20;6.70;;;25.70;98.00;;;;;;6272906;28;20226;-66
2021/08/01 10:36:27;;;;;;;7.53;7.00;;;25.50;99.90;;;;;;6253006;28;20669;-66
2021/08/01 10:39:33;;;;;;;8.17;7.10;;;25.40;99.90;;;;;;6270783;28;20227;-67
2021/08/01 10:42:40;;;;;;;7.10;6.40;;;25.20;99.90;;;;;;6259641;28;20699;-68
2021/08/01 10:45:46;;;;;;;7.23;6.53;;;25.10;99.90;;;;;;6260546;28;20210;-67
2021/08/01 10:48:49;;;;;;;8.57;7.60;;;25.00;99.90;;;;;;6249471;28;20231;-68
2021/08/01 10:51:54;;;;;;;8.20;7.23;;;25.00;99.90;;;;;;6240442;28;20219;-66
2021/08/01 10:54:58;;;;;;;7.40;6.80;;;24.80;99.90;;;;;;6250708;28;20232;-67
2021/08/01 10:58:12;;;;;;;8.30;7.60;;;24.80;99.90;;;;;;6243991;28;20231;-68
2021/08/01 11:01:16;;;;;;;9.07;8.17;;;24.70;99.90;;;;;;6229093;28;20228;-67
2021/08/01 11:16:15;;;;;;;11.17;10.27;;;24.60;99.90;;;;;;6329210;27;20920;-60
2021/08/01 11:19:34;;;;;;;9.07;8.20;;;24.50;99.90;;;;;;6317539;28;20218;-60
2021/08/01 11:22:51;;;;;;;8.50;7.70;;;24.30;99.90;;;;;;6320813;28;20226;-60
2021/08/01 11:26:07;;;;;;;8.93;8.13;;;24.20;99.90;;;;;;6323927;28;20302;-60
2021/08/01 11:29:11;;;;;;;9.30;8.40;;;24.10;99.90;;;;;;6345887;27;20222;-60
2021/08/01 11:32:16;;;;;;;9.07;8.27;;;23.90;99.90;;;;;;6346015;27;20221;-60
2021/08/01 11:35:21;;;;;;;8.83;8.10;;;23.70;99.90;;;;;;6345577;27;20677;-60
2021/08/01 11:38:28;;;;;;;8.47;7.77;;;23.60;99.90;;;;;;6345642;27;20236;-61
2021/08/01 11:41:39;;;;;;;7.53;6.83;;;23.50;99.90;;;;;;6345645;27;20579;-59
2021/08/01 11:44:57;;;;;;;8.47;7.63;;;23.50;99.90;;;;;;6345678;27;20242;-59
2021/08/01 11:48:04;;;;;;;9.27;8.37;;;23.40;99.90;;;;;;6345456;27;20236;-61
2021/08/01 11:51:09;;;;;;;7.70;7.10;;;23.30;99.90;;;;;;6345319;27;20252;-61
2021/08/01 11:54:14;;;;;;;8.27;7.23;;;23.30;99.90;;;;;;6332960;28;20233;-60
2021/08/01 11:57:17;;;;;;;10.50;7.43;;;23.10;99.90;;;;;;6331747;27;20236;-63
2021/08/01 12:00:25;;;;;;;6.70;6.10;;;22.90;99.90;;;;;;6337478;28;20226;-62
2021/08/01 12:03:32;;;;;;;7.00;5.90;;;22.70;99.90;;;;;;6343079;28;20234;-62
2021/08/01 12:06:36;;;;;;;7.67;7.07;;;22.50;99.90;;;;;;6342795;28;20240;-61
2021/08/01 12:09:40;;;;;;;6.80;6.20;;;22.50;99.90;;;;;;6340928;27;20228;-61
2021/08/01 12:12:44;;;;;;;6.63;6.03;;;22.50;99.90;;;;;;6342653;27;20573;-62
2021/08/01 12:15:47;;;;;;;7.57;6.90;;;22.50;99.90;;;;;;6326365;27;20617;-61
2021/08/01 12:18:52;;;;;;;13.70;8.00;;;22.60;99.90;;;;;;6319071;28;20233;-63
2021/08/01 12:21:58;;;;;;;7.53;6.83;;;22.50;99.90;;;;;;6325626;28;20230;-61
2021/08/01 12:25:02;;;;;;;7.43;6.77;;;22.60;99.90;;;;;;6325097;28;20569;-62
2021/08/01 12:28:05;;;;;;;8.60;7.80;;;22.50;99.90;;;;;;6303954;28;20230;-62
2021/08/01 12:31:08;;;;;;;7.90;7.20;;;22.50;99.90;;;;;;6301105;28;20239;-62
2021/08/01 12:34:20;;;;;;;7.40;6.53;;;22.50;99.90;;;;;;6301954;28;20237;-62
2021/08/01 12:37:24;;;;;;;7.90;7.10;;;22.50;99.90;;;;;;6301909;28;20261;-61
2021/08/01 12:40:33;;;;;;;7.90;7.20;;;22.50;99.90;;;;;;6302016;28;20734;-61
2021/08/01 12:43:37;;;;;;;8.27;7.57;;;22.60;99.90;;;;;;6302028;28;20225;-61
2021/08/01 12:46:40;;;;;;;7.23;6.50;;;22.80;99.90;;;;;;6301707;28;20741;-62
2021/08/01 12:49:45;;;;;;;7.50;6.80;;;23.00;99.90;;;;;;6302024;28;20195;-61
2021/08/01 12:52:51;;;;;;;7.67;6.80;;;23.20;99.90;;;;;;6298295;28;20656;-61
2021/08/01 12:55:57;;;;;;;6.90;6.30;;;23.40;99.90;;;;;;6301785;28;20300;-61
2021/08/01 12:59:10;;;;;;;7.77;7.17;;;23.80;99.90;;;;;;6301334;28;20547;-61
2021/08/01 13:02:14;;;;;;;7.03;6.43;;;24.10;99.90;;;;;;6301524;28;20380;-61
2021/08/01 13:05:23;;;;;;;7.87;7.27;;;24.10;99.90;;;;;;6301540;28;20269;-61
2021/08/01 13:08:36;;;;;;;7.47;6.83;;;23.90;99.90;;;;;;6301460;28;20230;-61
2021/08/01 13:11:39;;;;;;;6.90;6.40;;;23.90;99.90;;;;;;6301774;28;20222;-62
2021/08/01 13:14:44;;;;;;;7.70;6.40;;;23.80;99.90;;;;;;6298960;28;20572;-61
2021/08/01 13:17:47;;;;;;;6.60;6.00;;;23.70;99.90;;;;;;6298851;28;20672;-63
2021/08/01 13:20:52;;;;;;;6.20;5.80;;;23.70;99.90;;;;;;6299076;28;20273;-62
2021/08/01 13:24:10;;;;;;;6.80;6.30;;;23.20;99.90;;;;;;6297327;28;20238;-61
2021/08/01 13:27:15;;;;;;;6.80;6.20;;;23.20;99.90;;;;;;6295376;28;20227;-62
2021/08/01 13:30:19;;;;;;;7.70;6.03;;;23.20;99.90;;;;;;6297243;28;20618;-63
2021/08/01 13:33:23;;;;;;;7.73;7.13;;;23.10;99.90;;;;;;6298956;28;20230;-62
2021/08/01 13:39:57;;;;;;;8.17;7.40;;;22.90;99.90;;;;;;6352056;27;20538;-61
2021/08/01 13:43:00;;;;;;;8.00;7.40;;;22.70;99.90;;;;;;6346462;27;20229;-62
2021/08/01 13:46:16;;;;;;;6.93;6.23;;;22.70;99.90;;;;;;6324861;27;20222;-62
2021/08/01 13:49:19;;;;;;;6.43;5.83;;;22.90;99.90;;;;;;6320172;28;20233;-62
2021/08/01 13:52:24;;;;;;;6.83;6.23;;;23.10;99.90;;;;;;6320783;28;20226;-63
2021/08/01 13:55:29;;;;;;;5.73;5.23;;;23.20;99.90;;;;;;6320926;28;20311;-63
2021/08/01 13:58:33;;;;;;;6.43;5.73;;;23.30;99.90;;;;;;6320677;28;20230;-62
2021/08/01 14:01:36;;;;;;;8.03;6.77;;;23.40;99.90;;;;;;6321010;28;20218;-62
2021/08/01 14:04:40;;;;;;;6.67;6.17;;;23.50;99.90;;;;;;6320728;28;20308;-62
2021/08/01 14:07:43;;;;;;;6.53;6.03;;;23.50;99.90;;;;;;6320543;28;20206;-62
2021/08/01 14:10:48;;;;;;;6.10;5.70;;;23.60;99.90;;;;;;6320795;28;20203;-61
2021/08/01 14:13:51;;;;;;;6.53;5.93;;;23.70;99.90;;;;;;6320476;28;20594;-62
2021/08/01 14:16:54;;;;;;;7.00;6.40;;;23.80;99.90;;;;;;6320360;28;20226;-62
2021/08/01 14:19:57;;;;;;;6.63;6.03;;;23.70;99.90;;;;;;6320382;28;20244;-61
2021/08/01 14:23:00;;;;;;;7.33;6.73;;;23.70;99.90;;;;;;6320160;28;20245;-61
2021/08/01 14:26:06;;;;;;;7.87;7.27;;;23.50;99.90;;;;;;6319975;28;20230;-61
2021/08/01 14:29:10;;;;;;;8.17;7.27;;;23.50;99.90;;;;;;6320357;28;20561;-62
2021/08/01 14:32:15;;;;;;;8.13;7.30;;;23.50;99.90;;;;;;6320311;28;20240;-61
2021/08/01 14:35:19;;;;;;;6.73;6.23;;;23.50;99.90;;;;;;6319904;28;20292;-62
2021/08/01 14:38:24;;;;;;;7.80;7.30;;;23.40;99.90;;;;;;6319729;28;20315;-62
2021/08/01 14:41:29;;;;;;;7.10;6.60;;;23.50;99.90;;;;;;6319541;28;20237;-61
2021/08/01 14:44:33;;;;;;;5.90;5.50;;;23.60;99.90;;;;;;6319593;28;20241;-62
2021/08/01 14:47:37;;;;;;;6.03;5.53;;;23.60;99.90;;;;;;6319761;28;20230;-62
2021/08/01 14:50:44;;;;;;;8.10;7.43;;;23.60;99.90;;;;;;6306222;28;20242;-62
2021/08/01 14:53:46;;;;;;;7.63;7.03;;;23.60;99.90;;;;;;6302763;28;20238;-62
2021/08/01 14:57:00;;;;;;;7.10;6.40;;;23.60;99.90;;;;;;6302783;28;20301;-62
2021/08/01 15:00:07;;;;;;;6.70;6.20;;;23.40;99.90;;;;;;6302605;28;20678;-61
2021/08/01 15:03:25;;;;;;;19.47;17.10;;;23.30;99.90;;;;;;6302772;28;20234;-62
2021/08/01 15:06:32;;;;;;;7.30;6.80;;;23.20;99.90;;;;;;6302597;28;20237;-62
2021/08/01 15:09:50;;;;;;;7.70;7.00;;;23.00;99.90;;;;;;6302408;28;20245;-62
2021/08/01 15:12:59;;;;;;;5.80;5.20;;;22.60;99.90;;;;;;6302433;28;20296;-61
2021/08/01 15:16:07;;;;;;;3.80;3.50;;;22.30;99.90;;;;;;6301901;28;20246;-61
2021/08/01 15:19:11;;;;;;;4.20;3.73;;;22.20;99.90;;;;;;6301954;28;20552;-61
2021/08/01 15:22:25;;;;;;;5.40;4.50;;;22.10;99.90;;;;;;6301939;28;20227;-61
2021/08/01 15:25:30;;;;;;;4.57;3.83;;;22.00;99.90;;;;;;6301977;28;20317;-61
2021/08/01 15:28:35;;;;;;;4.47;4.07;;;21.90;99.90;;;;;;6301965;28;20214;-64
2021/08/01 15:31:42;;;;;;;4.10;3.80;;;21.80;99.90;;;;;;6302174;28;20210;-63
2021/08/01 15:34:46;;;;;;;5.40;3.10;;;21.80;99.90;;;;;;6302001;28;20229;-63
2021/08/01 15:37:52;;;;;;;4.13;3.83;;;21.70;99.90;;;;;;6302019;28;20237;-63
2021/08/01 15:41:09;;;;;;;4.70;3.50;;;21.70;99.90;;;;;;6301592;28;20573;-62
2021/08/01 15:44:16;;;;;;;3.47;3.17;;;21.80;99.90;;;;;;6301449;28;20238;-61
2021/08/01 15:47:21;;;;;;;5.93;3.20;;;21.70;99.90;;;;;;6301406;28;20616;-62
2021/08/01 15:50:25;;;;;;;2.50;2.30;;;21.80;99.90;;;;;;6301517;28;20226;-61
2021/08/01 15:53:45;;;;;;;3.47;2.50;;;21.80;99.90;;;;;;6301404;28;20243;-62
2021/08/01 15:56:50;;;;;;;3.50;2.43;;;21.90;99.90;;;;;;6301195;28;20246;-65
2021/08/01 16:00:02;;;;;;;2.90;2.60;;;22.00;99.90;;;;;;6301144;28;20238;-65
2021/08/01 16:03:38;;;;;;;2.60;2.40;;;22.10;99.90;;;;;;6300228;28;20686;-65
2021/08/01 16:06:43;;;;;;;3.20;2.70;;;22.40;99.90;;;;;;6296279;28;20242;-64
2021/08/01 16:09:54;;;;;;;2.90;2.00;;;22.50;99.90;;;;;;6300937;28;20233;-64
2021/08/01 16:13:04;;;;;;;2.80;1.87;;;22.60;99.90;;;;;;6300835;28;20241;-65
2021/08/01 16:16:25;;;;;;;2.50;1.60;;;22.50;99.90;;;;;;6300568;28;20255;-65
2021/08/01 16:19:30;;;;;;;1.43;1.33;;;22.40;99.90;;;;;;6300711;28;20243;-65